Time;durP1;ratioP1;P1;durP2;ratioP2;P2;SDS_P1;SDS_P2;PMS_P1;PMS_P2;Temp;Humidity;BMP_temperature;BMP_pressure;BME280_temperature;BME280_humidity;BME280_pressure;Samples;Min_cycle;Max_cycle;Signal;HPM_P1;HPM_P2
2021/12/28 00:01:49;;;;;;;;;2.50;1.00;;;;;21.00;39.24;99008.84;5054013;28;45430;-70
2021/12/28 00:04:14;;;;;;;;;0.75;0.75;;;;;21.00;39.54;99006.22;5053997;28;45572;-70
2021/12/28 00:06:40;;;;;;;;;0.75;0.75;;;;;21.02;39.14;99012.13;5054002;28;45444;-70
2021/12/28 00:09:05;;;;;;;;;1.00;1.00;;;;;21.03;39.46;99010.28;5056425;28;45367;-70
2021/12/28 00:11:30;;;;;;;;;1.75;0.75;;;;;21.03;39.33;99018.22;5053955;28;45339;-70
2021/12/28 00:14:01;;;;;;;;;0.67;0.33;;;;;21.01;39.50;99018.44;5053374;28;46229;-70
2021/12/28 00:19:10;;;;;;;;;0.33;0.33;;;;;21.03;39.46;99037.53;5053879;28;45300;-70
2021/12/28 00:21:36;;;;;;;;;3.75;1.00;;;;;21.04;39.12;99038.34;5052741;28;45290;-70
2021/12/28 00:24:02;;;;;;;;;0.00;0.00;;;;;21.04;39.48;99039.16;5055381;28;46095;-70
2021/12/28 00:26:27;;;;;;;;;3.00;1.00;;;;;21.01;39.52;99039.59;5053125;28;45284;-70
2021/12/28 00:28:53;;;;;;;;;1.00;1.00;;;;;21.05;39.41;99050.56;5053583;28;45386;-70
2021/12/28 00:31:19;;;;;;;;;0.50;0.00;;;;;21.05;39.48;99054.00;5053663;28;45357;-70
2021/12/28 00:33:45;;;;;;;;;6.00;0.75;;;;;21.03;39.49;99047.28;5051602;28;46893;-70
2021/12/28 00:36:11;;;;;;;;;1.25;0.50;;;;;21.03;39.40;99065.81;5054977;28;45243;-70
2021/12/28 00:38:36;;;;;;;;;0.50;0.50;;;;;21.05;39.40;99069.06;5053175;28;45462;-70
2021/12/28 00:41:04;;;;;;;;;0.50;0.00;;;;;21.04;39.58;99070.09;5053290;28;45484;-70
2021/12/28 00:43:31;;;;;;;;;2.75;0.00;;;;;21.03;39.11;99082.47;5053306;28;45452;-70
2021/12/28 00:45:56;;;;;;;;;1.75;0.75;;;;;21.04;39.41;99086.75;5052982;28;45382;-70
2021/12/28 00:48:22;;;;;;;;;1.00;1.00;;;;;21.04;39.19;99088.59;5053756;28;45313;-70
2021/12/28 00:50:48;;;;;;;;;0.00;0.00;;;;;21.03;39.22;99076.38;5055401;28;45252;-70
2021/12/28 00:53:13;;;;;;;;;2.50;0.25;;;;;21.01;39.35;99068.69;5053237;28;45639;-70
2021/12/28 00:55:39;;;;;;;;;0.00;0.00;;;;;21.02;39.46;99069.50;5052778;28;45441;-70
2021/12/28 00:58:05;;;;;;;;;1.75;0.75;;;;;21.03;39.26;99068.44;5053565;28;45517;-70
2021/12/28 01:00:34;;;;;;;;;1.75;0.00;;;;;21.03;39.37;99068.44;5052976;28;45310;-70
2021/12/28 01:03:01;;;;;;;;;0.25;0.25;;;;;21.02;39.61;99062.38;5054672;28;47536;-70
2021/12/28 01:05:28;;;;;;;;;2.00;1.00;;;;;21.02;39.56;99062.38;5052935;28;45453;-70
2021/12/28 01:07:55;;;;;;;;;0.00;0.00;;;;;21.03;39.34;99066.63;5053106;28;45341;-70
2021/12/28 01:10:28;;;;;;;;;2.50;1.50;;;;;21.00;39.28;99061.72;5052756;28;45552;-70
2021/12/28 01:12:55;;;;;;;;;0.00;0.00;;;;;21.01;39.42;99063.38;5051494;28;46508;-70
2021/12/28 01:15:22;;;;;;;;;0.50;0.50;;;;;21.01;39.31;99066.03;5053489;28;45622;-70
2021/12/28 01:17:47;;;;;;;;;0.75;0.50;;;;;21.04;39.58;99075.38;5054992;28;45410;-70
2021/12/28 01:20:14;;;;;;;;;1.00;0.00;;;;;21.03;39.48;99074.56;5053106;28;45343;-70
2021/12/28 01:22:41;;;;;;;;;0.50;0.00;;;;;21.03;39.61;99084.31;5052848;28;47227;-70
2021/12/28 01:25:08;;;;;;;;;3.00;1.00;;;;;21.02;39.58;99075.59;5052565;28;45436;-70
2021/12/28 01:27:34;;;;;;;;;3.50;0.50;;;;;21.03;39.60;99079.03;5052951;28;45366;-70
2021/12/28 01:29:59;;;;;;;;;0.25;0.25;;;;;21.03;39.44;99082.47;5054962;28;45313;-70
2021/12/28 01:32:25;;;;;;;;;1.25;0.75;;;;;21.01;39.34;99083.69;5052925;28;46428;-70
2021/12/28 01:34:51;;;;;;;;;0.00;0.00;;;;;21.03;39.36;99100.19;5052719;28;45516;-70
2021/12/28 01:37:16;;;;;;;;;2.75;1.00;;;;;21.01;39.25;99084.53;5052950;28;45476;-70
2021/12/28 01:39:42;;;;;;;;;0.75;0.75;;;;;20.99;39.20;99091.84;5053441;28;45338;-70
2021/12/28 01:42:07;;;;;;;;;0.50;0.50;;;;;21.02;39.35;99099.41;5055006;28;45409;-70
2021/12/28 01:44:34;;;;;;;;;0.75;0.75;;;;;21.01;39.31;99104.84;5052527;28;45489;-70
2021/12/28 01:47:00;;;;;;;;;1.00;1.00;;;;;21.01;39.50;99107.50;5054343;28;45281;-70
2021/12/28 01:49:25;;;;;;;;;1.00;1.00;;;;;21.01;39.47;99095.13;5056031;28;45318;-70
2021/12/28 01:51:52;;;;;;;;;2.00;2.00;;;;;21.02;39.65;99106.50;5054632;28;46213;-70
2021/12/28 01:54:17;;;;;;;;;3.50;1.25;;;;;21.01;39.31;99108.34;5056679;28;45866;-70
2021/12/28 01:56:45;;;;;;;;;1.00;1.00;;;;;21.02;39.56;99119.72;5035921;28;45387;-70
2021/12/28 01:59:15;;;;;;;;;2.50;0.50;;;;;21.03;39.30;99123.97;5053077;28;45578;-70
2021/12/28 02:01:40;;;;;;;;;2.50;0.00;;;;;21.02;39.29;99125.03;5055732;28;46347;-70
2021/12/28 02:04:32;;;;;;;;;1.00;1.00;;;;;21.04;39.38;99128.25;5055863;28;45408;-70
2021/12/28 02:06:58;;;;;;;;;0.00;0.00;;;;;21.03;39.24;99126.63;5037020;28;45558;-70
2021/12/28 02:09:23;;;;;;;;;1.00;0.50;;;;;21.00;39.26;99127.84;5055508;28;45473;-70
2021/12/28 02:11:49;;;;;;;;;1.25;1.25;;;;;21.01;39.33;99129.50;5057859;28;46234;-70
2021/12/28 02:14:15;;;;;;;;;2.00;0.00;;;;;21.01;39.44;99128.66;5055493;28;45441;-70
2021/12/28 02:16:42;;;;;;;;;1.25;1.00;;;;;21.04;39.40;99130.91;5055979;28;45298;-70
2021/12/28 02:19:10;;;;;;;;;2.50;1.75;;;;;21.04;39.19;99131.72;5054418;28;49149;-70
2021/12/28 02:21:36;;;;;;;;;2.25;0.75;;;;;21.04;39.37;99139.66;5055602;28;45331;-70
2021/12/28 02:24:05;;;;;;;;;2.00;1.00;;;;;21.04;39.06;99139.66;5057250;28;45520;-70
2021/12/28 02:26:31;;;;;;;;;1.25;0.00;;;;;21.02;39.34;99143.53;5042400;28;45510;-70
2021/12/28 02:28:57;;;;;;;;;1.00;0.00;;;;;21.03;39.28;99134.56;5055575;28;45616;-70
2021/12/28 02:31:23;;;;;;;;;0.00;0.00;;;;;21.06;39.55;99157.94;5054030;28;46043;-70
2021/12/28 02:33:49;;;;;;;;;1.25;1.25;;;;;21.06;39.44;99153.44;5055617;28;45373;-70
2021/12/28 02:36:15;;;;;;;;;0.75;0.75;;;;;21.06;39.50;99142.88;5056727;28;45322;-70
2021/12/28 02:38:42;;;;;;;;;1.25;1.00;;;;;21.04;39.29;99138.81;5057081;28;45508;-70
2021/12/28 02:41:09;;;;;;;;;1.25;0.00;;;;;21.06;39.21;99153.44;5055005;28;45334;-70
2021/12/28 02:43:35;;;;;;;;;2.25;1.00;;;;;21.05;39.54;99157.13;5055192;28;45415;-70
2021/12/28 02:46:03;;;;;;;;;0.00;0.00;;;;;21.05;39.62;99159.75;5055127;28;45426;-70
2021/12/28 02:48:29;;;;;;;;;1.00;0.50;;;;;21.05;39.54;99162.41;5055532;28;45386;-70
2021/12/28 02:50:58;;;;;;;;;2.00;0.00;;;;;21.05;39.83;99175.63;5057090;28;46320;-70
2021/12/28 02:53:24;;;;;;;;;1.00;1.00;;;;;21.03;39.54;99167.09;5054800;28;45395;-70
2021/12/28 02:55:52;;;;;;;;;0.50;0.50;;;;;21.02;39.42;99167.31;5055058;28;45369;-70
2021/12/28 02:58:34;;;;;;;;;0.25;0.25;;;;;21.03;39.46;99167.09;5053235;28;45246;-70
2021/12/28 03:01:16;;;;;;;;;0.00;0.00;;;;;21.04;39.65;99159.97;5055044;28;45312;-70
2021/12/28 03:03:46;;;;;;;;;0.25;0.25;;;;;21.05;39.35;99164.25;5037981;28;45616;-70
2021/12/28 03:06:14;;;;;;;;;1.00;1.00;;;;;21.04;39.67;99170.56;5056172;28;45441;-70
2021/12/28 03:08:43;;;;;;;;;2.00;0.75;;;;;21.04;39.50;99174.00;5055590;28;45591;-70
2021/12/28 03:11:09;;;;;;;;;2.00;0.50;;;;;21.04;39.29;99165.28;5053173;28;47069;-70
2021/12/28 03:13:42;;;;;;;;;3.25;1.50;;;;;21.04;39.51;99173.19;5054689;28;45283;-70
2021/12/28 03:16:09;;;;;;;;;0.00;0.00;;;;;21.04;39.48;99176.66;5054868;28;45480;-70
2021/12/28 03:18:35;;;;;;;;;0.00;0.00;;;;;21.03;39.49;99180.31;5054875;28;45254;-70
2021/12/28 03:21:03;;;;;;;;;0.75;0.75;;;;;21.03;39.68;99169.75;5056222;28;46282;-70
2021/12/28 03:23:28;;;;;;;;;0.25;0.25;;;;;21.02;39.59;99176.06;5054633;28;45519;-70
2021/12/28 03:25:54;;;;;;;;;0.00;0.00;;;;;21.03;39.59;99187.44;5054393;28;45425;-70
2021/12/28 03:28:28;;;;;;;;;1.50;1.50;;;;;21.03;39.35;99182.16;5054504;28;45487;-70
2021/12/28 03:30:56;;;;;;;;;0.50;0.00;;;;;21.02;39.75;99184.00;5054541;28;46222;-70
2021/12/28 03:33:24;;;;;;;;;0.00;0.00;;;;;21.03;39.38;99182.16;5054607;28;45675;-70
2021/12/28 03:35:49;;;;;;;;;1.75;0.00;;;;;21.00;39.63;99179.91;5056391;28;45400;-70
2021/12/28 03:38:15;;;;;;;;;2.00;0.00;;;;;21.01;39.79;99187.66;5052859;28;45517;-70
2021/12/28 03:40:41;;;;;;;;;1.00;0.00;;;;;21.03;39.79;99184.78;5054358;28;45271;-70
2021/12/28 03:43:07;;;;;;;;;0.75;0.75;;;;;21.02;39.64;99180.53;5054275;28;45506;-70
2021/12/28 03:45:34;;;;;;;;;0.00;0.00;;;;;21.04;39.37;99191.72;5054232;28;45326;-70
2021/12/28 03:47:59;;;;;;;;;0.00;0.00;;;;;21.02;39.37;99189.28;5056431;28;45434;-70
2021/12/28 03:50:25;;;;;;;;;1.00;1.00;;;;;21.01;39.82;99192.94;5052322;28;45605;-70
2021/12/28 03:52:53;;;;;;;;;0.00;0.00;;;;;21.03;39.79;99212.06;5054010;28;45343;-70
2021/12/28 03:55:19;;;;;;;;;1.75;0.00;;;;;21.03;39.71;99214.69;5054233;28;45444;-70
2021/12/28 03:57:44;;;;;;;;;2.00;0.00;;;;;21.04;39.79;99218.97;5054333;28;45455;-70
2021/12/28 04:00:13;;;;;;;;;1.00;1.00;;;;;21.03;39.53;99209.41;5055663;28;46064;-70
2021/12/28 04:02:39;;;;;;;;;1.25;0.00;;;;;21.01;39.52;99213.25;5053745;28;45498;-70
2021/12/28 04:05:05;;;;;;;;;0.50;0.50;;;;;21.02;39.38;99218.38;5053558;28;45410;-70
2021/12/28 04:07:30;;;;;;;;;1.00;1.00;;;;;21.03;39.42;99212.06;5053957;28;45549;-70
2021/12/28 04:10:02;;;;;;;;;1.75;0.00;;;;;21.02;39.44;99207.81;5052948;28;45948;-70
2021/12/28 04:12:29;;;;;;;;;0.50;0.00;;;;;21.01;39.66;99208.81;5054098;28;45575;-70
2021/12/28 04:14:55;;;;;;;;;0.00;0.00;;;;;21.02;39.33;99201.69;5056043;28;45371;-70
2021/12/28 04:17:21;;;;;;;;;0.00;0.00;;;;;21.02;39.49;99205.16;5052062;28;45430;-70
2021/12/28 04:19:47;;;;;;;;;1.00;1.00;;;;;21.04;39.94;99202.28;5053300;28;46247;-70
2021/12/28 04:22:13;;;;;;;;;0.00;0.00;;;;;21.04;39.90;99203.09;5053498;28;45880;-70
2021/12/28 04:24:39;;;;;;;;;0.00;0.00;;;;;21.04;39.63;99204.94;5054111;28;45322;-70
2021/12/28 04:27:05;;;;;;;;;0.00;0.00;;;;;21.04;39.68;99205.75;5051503;28;45289;-70
2021/12/28 04:29:30;;;;;;;;;0.00;0.00;;;;;21.04;39.87;99208.41;5052034;28;46558;-70
2021/12/28 04:31:55;;;;;;;;;0.75;0.00;;;;;21.02;39.79;99199.88;5053415;28;45280;-70
2021/12/28 04:34:20;;;;;;;;;0.25;0.00;;;;;20.97;39.55;99191.72;5053471;28;45329;-70
2021/12/28 04:36:47;;;;;;;;;0.50;0.50;;;;;21.05;39.82;99217.94;5053906;28;45236;-70
2021/12/28 04:39:13;;;;;;;;;0.50;0.00;;;;;21.07;39.70;99207.16;5054722;28;46439;-70
2021/12/28 04:41:40;;;;;;;;;1.25;0.25;;;;;21.06;39.67;99222.22;5054238;28;45376;-70
2021/12/28 04:44:06;;;;;;;;;0.00;0.00;;;;;21.06;39.57;99216.91;5053438;28;45330;-70
2021/12/28 04:46:31;;;;;;;;;1.00;0.00;;;;;21.08;39.75;99229.13;5053310;28;46363;-70
2021/12/28 04:48:57;;;;;;;;;1.00;0.75;;;;;21.06;39.36;99234.59;5053095;28;45416;-70
2021/12/28 04:51:23;;;;;;;;;0.00;0.00;;;;;21.07;39.77;99241.53;5053466;28;45466;-70
2021/12/28 04:53:50;;;;;;;;;0.00;0.00;;;;;21.05;39.64;99235.66;5055530;28;45298;-70
2021/12/28 04:56:15;;;;;;;;;0.00;0.00;;;;;21.08;39.93;99240.50;5051747;28;45265;-70
2021/12/28 04:58:41;;;;;;;;;0.25;0.25;;;;;21.06;39.46;99237.25;5031788;28;47129;-70
2021/12/28 05:01:06;;;;;;;;;0.00;0.00;;;;;21.08;39.64;99250.28;5041347;28;45385;-70
2021/12/28 05:03:32;;;;;;;;;1.00;0.00;;;;;21.06;39.88;99251.28;5053172;28;45365;-70
2021/12/28 05:05:57;;;;;;;;;0.25;0.25;;;;;21.08;39.57;99259.00;5055390;28;45412;-70
2021/12/28 05:08:23;;;;;;;;;1.50;0.50;;;;;21.09;39.63;99259.81;5051629;28;46118;-70
2021/12/28 05:10:50;;;;;;;;;1.00;0.00;;;;;21.08;39.49;99259.00;5053094;28;45425;-70
2021/12/28 05:13:16;;;;;;;;;0.00;0.00;;;;;21.07;39.77;99254.75;5053351;28;45298;-70
2021/12/28 05:15:44;;;;;;;;;1.50;1.50;;;;;21.06;39.83;99261.06;5053189;28;45359;-70
2021/12/28 05:18:10;;;;;;;;;0.00;0.00;;;;;21.06;39.61;99261.88;5054823;28;47323;-70
2021/12/28 05:20:36;;;;;;;;;0.00;0.00;;;;;21.08;39.77;99272.22;5054793;28;45428;-70
2021/12/28 05:23:03;;;;;;;;;1.00;0.75;;;;;21.08;39.62;99266.16;5054980;28;45492;-70
2021/12/28 05:25:28;;;;;;;;;0.00;0.00;;;;;21.07;39.71;99273.25;5056407;28;45622;-70
2021/12/28 05:27:54;;;;;;;;;1.00;0.00;;;;;21.07;39.69;99275.91;5056298;28;46472;-70
2021/12/28 05:30:19;;;;;;;;;0.50;0.50;;;;;21.05;39.91;99265.53;5057265;28;45593;-70
2021/12/28 05:32:45;;;;;;;;;0.00;0.00;;;;;21.06;39.58;99284.84;5057595;28;45434;-70
2021/12/28 05:35:11;;;;;;;;;0.00;0.00;;;;;21.05;39.73;99270.81;5054896;28;45498;-70
2021/12/28 05:37:37;;;;;;;;;0.00;0.00;;;;;21.07;39.59;99281.19;5056381;28;46136;-70
2021/12/28 05:40:05;;;;;;;;;0.50;0.00;;;;;21.06;39.55;99283.03;5056250;28;45524;-70
2021/12/28 05:42:31;;;;;;;;;0.00;0.00;;;;;21.07;39.74;99283.84;5056489;28;45300;-70
2021/12/28 05:44:56;;;;;;;;;0.00;0.00;;;;;21.06;39.87;99274.28;5058323;28;45414;-70
2021/12/28 05:47:21;;;;;;;;;0.50;0.50;;;;;21.07;39.87;99289.13;5054150;28;45978;-70
2021/12/28 05:49:47;;;;;;;;;1.25;0.25;;;;;21.05;39.63;99284.03;5055538;28;45513;-70
2021/12/28 05:52:12;;;;;;;;;0.75;0.75;;;;;21.05;39.57;99294.63;5056256;28;45682;-70
2021/12/28 05:54:37;;;;;;;;;0.00;0.00;;;;;21.06;39.62;99282.22;5055396;28;45542;-70
2021/12/28 05:57:03;;;;;;;;;0.00;0.00;;;;;21.04;40.05;99281.63;5057826;28;46077;-70
2021/12/28 05:59:29;;;;;;;;;0.25;0.25;;;;;21.07;39.94;99270.63;5055779;28;45356;-70
2021/12/28 06:01:54;;;;;;;;;0.00;0.00;;;;;21.05;39.91;99283.25;5055650;28;45408;-70
2021/12/28 06:04:19;;;;;;;;;0.00;0.00;;;;;21.04;40.04;99281.63;5055981;28;45568;-70
2021/12/28 06:06:45;;;;;;;;;0.00;0.00;;;;;21.05;39.63;99277.97;5037891;28;45867;-70
2021/12/28 06:09:10;;;;;;;;;0.00;0.00;;;;;21.04;39.74;99295.66;5057535;28;45367;-70
2021/12/28 06:11:36;;;;;;;;;0.50;0.00;;;;;21.04;40.08;99290.38;5056402;28;45536;-70
2021/12/28 06:14:01;;;;;;;;;0.00;0.00;;;;;21.05;40.07;99297.25;5054217;28;45378;-70
2021/12/28 06:16:27;;;;;;;;;1.50;0.00;;;;;21.05;39.81;99294.63;5055351;28;45447;-70
2021/12/28 06:18:52;;;;;;;;;0.00;0.00;;;;;21.02;39.92;99295.06;5055817;28;45512;-70
2021/12/28 06:21:17;;;;;;;;;0.00;0.00;;;;;21.04;39.63;99303.59;5056873;28;45330;-70
2021/12/28 06:23:43;;;;;;;;;0.00;0.00;;;;;21.05;39.66;99305.19;5056880;28;45303;-69
2021/12/28 06:26:08;;;;;;;;;0.00;0.00;;;;;21.05;39.86;99305.19;5053899;28;45961;-70
2021/12/28 06:28:34;;;;;;;;;1.00;1.00;;;;;21.07;39.92;99315.56;5055409;28;45335;-70
2021/12/28 06:31:00;;;;;;;;;0.50;0.50;;;;;21.03;39.90;99317.81;5037847;28;45374;-70
2021/12/28 06:33:25;;;;;;;;;0.00;0.00;;;;;21.04;39.84;99310.69;5054744;28;45521;-70
2021/12/28 06:35:51;;;;;;;;;0.00;0.00;;;;;21.06;39.90;99317.41;5057404;28;46898;-70
2021/12/28 06:38:18;;;;;;;;;0.00;0.00;;;;;21.06;40.00;99330.63;5055299;28;45489;-70
2021/12/28 06:40:43;;;;;;;;;0.00;0.00;;;;;21.08;39.66;99319.81;5055436;28;45606;-70
2021/12/28 06:43:09;;;;;;;;;0.00;0.00;;;;;21.04;39.89;99308.88;5055468;28;45597;-70
2021/12/28 06:45:35;;;;;;;;;0.00;0.00;;;;;21.09;39.74;99328.56;5054750;28;46739;-71
2021/12/28 06:48:01;;;;;;;;;0.25;0.25;;;;;21.10;39.84;99335.50;5057446;28;45386;-70
2021/12/28 06:50:26;;;;;;;;;0.00;0.00;;;;;21.09;39.88;99333.88;5055237;28;45427;-70
2021/12/28 06:52:52;;;;;;;;;2.00;0.00;;;;;21.08;39.73;99325.13;5053668;28;45408;-70
2021/12/28 06:55:17;;;;;;;;;0.00;0.00;;;;;21.10;39.62;99327.56;5054967;28;45596;-70
2021/12/28 06:57:43;;;;;;;;;0.00;0.00;;;;;21.06;39.59;99311.28;5055231;28;45363;-71
2021/12/28 07:00:12;;;;;;;;;0.00;0.00;;;;;21.09;39.80;99324.09;5057155;28;45330;-70
2021/12/28 07:02:37;;;;;;;;;0.00;0.00;;;;;21.10;39.85;99330.22;5055287;28;45396;-70
2021/12/28 07:05:06;;;;;;;;;0.00;0.00;;;;;21.05;39.88;99312.34;5053447;28;45326;-70
2021/12/28 07:07:31;;;;;;;;;1.00;0.00;;;;;21.09;39.87;99331.22;5054838;28;45377;-70
2021/12/28 07:09:57;;;;;;;;;1.25;0.75;;;;;21.08;39.99;99340.97;5055030;28;45375;-70
2021/12/28 07:12:22;;;;;;;;;0.00;0.00;;;;;21.02;40.06;99325.97;5055208;28;45336;-70
2021/12/28 07:14:47;;;;;;;;;0.00;0.00;;;;;21.09;39.88;99336.50;5056484;28;46379;-70
2021/12/28 07:17:13;;;;;;;;;0.00;0.00;;;;;21.09;39.76;99363.78;5054725;28;45524;-70
2021/12/28 07:19:38;;;;;;;;;0.00;0.00;;;;;21.09;40.03;99363.78;5054798;28;45906;-70
2021/12/28 07:22:04;;;;;;;;;0.00;0.00;;;;;21.06;39.64;99382.69;5054887;28;45493;-70
2021/12/28 07:24:30;;;;;;;;;0.00;0.00;;;;;21.07;39.86;99381.69;5054608;28;46233;-70
2021/12/28 07:26:56;;;;;;;;;0.00;0.00;;;;;21.09;39.99;99373.53;5056541;28;45293;-70
2021/12/28 07:29:22;;;;;;;;;0.75;0.00;;;;;21.06;39.63;99374.75;5054572;28;45453;-70
2021/12/28 07:31:48;;;;;;;;;0.00;0.00;;;;;21.10;39.73;99393.69;5053077;28;45489;-70
2021/12/28 07:34:13;;;;;;;;;0.00;0.00;;;;;21.06;40.11;99374.75;5054231;28;48161;-70
2021/12/28 07:36:39;;;;;;;;;0.00;0.00;;;;;21.09;39.91;99392.03;5054748;28;45394;-70
2021/12/28 07:39:05;;;;;;;;;3.25;0.00;;;;;21.08;39.75;99393.06;5056672;28;45326;-70
2021/12/28 07:41:31;;;;;;;;;0.00;0.00;;;;;21.07;40.18;99416.06;5054093;28;45402;-70
2021/12/28 07:43:58;;;;;;;;;1.33;0.00;;;;;21.08;40.03;99407.09;5052647;28;46049;-70
2021/12/28 07:46:23;;;;;;;;;1.50;0.00;;;;;21.07;39.82;99416.06;5054063;28;45557;-70
2021/12/28 07:48:49;;;;;;;;;0.00;0.00;;;;;21.08;39.97;99425.59;5054504;28;45385;-70
2021/12/28 07:51:14;;;;;;;;;0.00;0.00;;;;;21.08;39.94;99420.31;5055838;28;45362;-70
2021/12/28 07:53:40;;;;;;;;;0.00;0.00;;;;;21.05;40.03;99428.69;5054858;28;47270;-70
2021/12/28 07:56:05;;;;;;;;;0.00;0.00;;;;;21.07;39.81;99445.16;5053834;28;45648;-70
2021/12/28 07:58:30;;;;;;;;;0.00;0.00;;;;;21.04;39.76;99437.63;5054260;28;45476;-70
2021/12/28 08:00:56;;;;;;;;;0.00;0.00;;;;;21.06;39.95;99454.91;5054106;28;45450;-70
2021/12/28 08:03:22;;;;;;;;;0.00;0.00;;;;;21.06;39.88;99452.25;5054575;28;46057;-70
2021/12/28 08:05:49;;;;;;;;;0.00;0.00;;;;;21.06;39.66;99441.69;5055865;28;45330;-70
2021/12/28 08:08:15;;;;;;;;;0.00;0.00;;;;;21.06;40.17;99456.75;5053820;28;45429;-70
2021/12/28 08:10:40;;;;;;;;;0.00;0.00;;;;;21.06;39.63;99454.09;5052026;28;45543;-70
2021/12/28 08:13:06;;;;;;;;;0.00;0.00;;;;;21.06;39.98;99460.19;5053971;28;45473;-70
2021/12/28 08:15:31;;;;;;;;;0.00;0.00;;;;;21.07;39.66;99458.38;5054157;28;45251;-70
2021/12/28 08:17:57;;;;;;;;;0.00;0.00;;;;;21.05;39.74;99473.66;5056202;28;45373;-70
2021/12/28 08:20:22;;;;;;;;;0.50;0.50;;;;;21.07;39.73;99471.59;5053817;28;45240;-70
2021/12/28 08:22:49;;;;;;;;;0.00;0.00;;;;;21.06;39.97;99452.25;5052263;28;46082;-70
2021/12/28 08:25:17;;;;;;;;;1.50;0.00;;;;;21.07;39.70;99458.38;5053101;28;45332;-70
2021/12/28 08:27:43;;;;;;;;;0.75;0.75;;;;;21.06;39.89;99468.13;5054124;28;45529;-70
2021/12/28 08:30:10;;;;;;;;;0.00;0.00;;;;;21.06;40.01;99457.56;5055842;28;45516;-70
2021/12/28 08:32:36;;;;;;;;;0.00;0.00;;;;;21.07;39.92;99461.03;5052357;28;49681;-70
2021/12/28 08:35:02;;;;;;;;;0.00;0.00;;;;;21.06;39.64;99478.72;5053519;28;45602;-70
2021/12/28 08:37:28;;;;;;;;;0.00;0.00;;;;;21.06;39.48;99481.34;5053595;28;45297;-70
2021/12/28 08:39:53;;;;;;;;;0.00;0.00;;;;;21.08;39.80;99480.34;5053310;28;45296;-70
2021/12/28 08:42:21;;;;;;;;;0.00;0.00;;;;;21.06;39.90;99484.00;5054417;28;46193;-70
2021/12/28 08:44:46;;;;;;;;;0.25;0.25;;;;;21.08;39.62;99483.78;5055172;28;45524;-70
2021/12/28 08:47:12;;;;;;;;;0.00;0.00;;;;;21.08;39.81;99478.50;5053124;28;45497;-70
2021/12/28 08:49:37;;;;;;;;;0.00;0.00;;;;;21.09;39.85;99474.84;5051838;28;45481;-70
2021/12/28 08:52:03;;;;;;;;;3.00;0.00;;;;;21.10;39.61;99473.00;5053322;28;45869;-70
2021/12/28 08:54:29;;;;;;;;;2.00;0.25;;;;;21.09;39.99;99489.88;5052990;28;45366;-70
2021/12/28 08:56:54;;;;;;;;;1.00;0.00;;;;;21.10;39.85;99488.88;5055085;28;45418;-70
2021/12/28 08:59:20;;;;;;;;;0.00;0.00;;;;;21.09;39.65;99493.34;5053196;28;45429;-70
2021/12/28 09:01:47;;;;;;;;;2.25;0.00;;;;;21.11;39.47;99504.53;5051921;28;45394;-70
2021/12/28 09:04:13;;;;;;;;;0.00;0.00;;;;;21.06;39.73;99497.22;5052977;28;45481;-70
2021/12/28 09:06:38;;;;;;;;;0.00;0.00;;;;;21.09;39.84;99511.88;5053418;28;45309;-70
2021/12/28 09:09:04;;;;;;;;;0.00;0.00;;;;;21.07;39.75;99508.63;5054969;28;45430;-70
2021/12/28 09:11:29;;;;;;;;;0.00;0.00;;;;;21.11;39.75;99524.88;5052875;28;46061;-69
2021/12/28 09:13:55;;;;;;;;;0.00;0.00;;;;;21.10;39.75;99525.91;5052921;28;45320;-70
2021/12/28 09:16:20;;;;;;;;;0.00;0.00;;;;;21.10;39.47;99545.25;5053268;28;45349;-70
2021/12/28 09:18:46;;;;;;;;;0.00;0.00;;;;;21.09;39.62;99551.53;5053032;28;45480;-70
2021/12/28 09:21:11;;;;;;;;;1.50;0.00;;;;;21.08;39.56;99552.53;5054576;28;45321;-70
2021/12/28 09:23:38;;;;;;;;;0.00;0.00;;;;;21.09;39.76;99542.78;5053234;28;45660;-70
2021/12/28 09:26:05;;;;;;;;;0.00;0.00;;;;;21.09;39.88;99559.47;5052852;28;45567;-70
2021/12/28 09:28:30;;;;;;;;;1.25;1.00;;;;;21.10;39.50;99552.34;5051246;28;45396;-70
2021/12/28 09:30:55;;;;;;;;;0.50;0.00;;;;;21.09;39.56;99564.75;5052699;28;47158;-70
2021/12/28 09:33:21;;;;;;;;;0.00;0.00;;;;;21.10;39.48;99568.22;5053628;28;45334;-70
2021/12/28 09:35:46;;;;;;;;;1.33;0.00;;;;;21.05;39.57;99569.63;5054526;28;45381;-70
2021/12/28 09:38:12;;;;;;;;;0.00;0.00;;;;;21.06;39.64;99586.31;5052363;28;45434;-70
2021/12/28 09:40:39;;;;;;;;;1.00;1.00;;;;;21.09;39.46;99580.63;5051137;28;45921;-70
2021/12/28 09:43:07;;;;;;;;;0.67;0.67;;;;;21.09;39.60;99619.47;5052900;28;45407;-70
2021/12/28 09:45:34;;;;;;;;;0.00;0.00;;;;;21.08;39.80;99615.22;5052788;28;45392;-70
2021/12/28 09:48:00;;;;;;;;;1.75;0.00;;;;;21.08;39.52;99602.78;5054658;28;45503;-70
2021/12/28 09:50:26;;;;;;;;;0.00;0.00;;;;;21.08;39.46;99602.00;5052441;28;46314;-70
2021/12/28 09:52:52;;;;;;;;;0.00;0.00;;;;;21.07;39.64;99609.13;5051940;28;45330;-70
2021/12/28 09:55:21;;;;;;;;;0.00;0.00;;;;;21.08;39.30;99618.66;5052490;28;45204;-70
2021/12/28 09:57:47;;;;;;;;;2.67;0.00;;;;;21.06;39.72;99613.59;5052739;28;45486;-70
2021/12/28 10:00:14;;;;;;;;;0.00;0.00;;;;;21.06;39.48;99632.09;5053728;28;46029;-70
2021/12/28 10:02:40;;;;;;;;;0.00;0.00;;;;;21.03;39.46;99619.28;5051462;28;45472;-70
2021/12/28 10:05:09;;;;;;;;;1.25;0.25;;;;;21.07;39.57;99624.97;5052255;28;45413;-70
2021/12/28 10:07:43;;;;;;;;;0.00;0.00;;;;;21.07;39.58;99619.69;5051890;28;45385;-70
2021/12/28 10:10:09;;;;;;;;;3.00;0.00;;;;;21.05;39.48;99619.88;5055578;28;46453;-70
2021/12/28 10:12:41;;;;;;;;;3.25;1.00;;;;;21.06;39.71;99631.28;5055659;28;45534;-70
2021/12/28 10:15:11;;;;;;;;;2.00;1.00;;;;;21.03;40.03;99629.03;5057661;28;45326;-70
2021/12/28 10:17:40;;;;;;;;;0.25;0.25;;;;;21.05;39.47;99633.09;5055032;28;45573;-70
2021/12/28 10:20:13;;;;;;;;;0.00;0.00;;;;;21.05;39.41;99643.69;5054049;28;46029;-70
2021/12/28 10:22:47;;;;;;;;;0.00;0.00;;;;;21.03;39.38;99645.72;5055098;28;45385;-70
2021/12/28 10:25:28;;;;;;;;;0.00;0.00;;;;;21.05;39.47;99651.63;5055622;28;45367;-70
2021/12/28 10:28:03;;;;;;;;;1.75;0.00;;;;;21.03;39.72;99636.97;5054471;28;45679;-70
2021/12/28 10:30:36;;;;;;;;;3.00;1.00;;;;;21.04;39.46;99649.19;5055432;28;46539;-70
2021/12/28 10:33:08;;;;;;;;;2.00;0.00;;;;;21.04;39.72;99657.94;5057578;28;45470;-70
2021/12/28 10:35:37;;;;;;;;;2.00;0.25;;;;;21.06;39.62;99660.38;5055124;28;45532;-70
2021/12/28 10:38:09;;;;;;;;;2.00;0.25;;;;;21.05;39.66;99661.41;5055418;28;45278;-70
2021/12/28 10:40:41;;;;;;;;;0.00;0.00;;;;;21.06;39.62;99653.25;5054937;28;47287;-70
2021/12/28 10:43:10;;;;;;;;;2.75;0.75;;;;;21.08;39.84;99654.91;5055320;28;45425;-70
2021/12/28 10:45:49;;;;;;;;;2.00;0.00;;;;;21.06;39.71;99663.84;5054325;28;45410;-70
2021/12/28 10:48:27;;;;;;;;;1.25;0.25;;;;;21.09;39.55;99653.84;5053589;28;45419;-70
2021/12/28 10:51:20;;;;;;;;;0.25;0.00;;;;;21.08;39.53;99641.66;5056885;28;46082;-70
2021/12/28 10:54:07;;;;;;;;;5.00;1.00;;;;;21.08;39.25;99650.41;5056868;28;45464;-70
2021/12/28 10:56:38;;;;;;;;;3.25;0.00;;;;;21.09;39.56;99651.22;5054980;28;45369;-70
2021/12/28 10:59:09;;;;;;;;;0.00;0.00;;;;;21.09;39.31;99664.44;5053628;28;45332;-70
2021/12/28 11:01:39;;;;;;;;;2.25;1.00;;;;;21.09;39.55;99667.91;5054723;28;45988;-70
2021/12/28 11:04:13;;;;;;;;;1.00;1.00;;;;;21.09;39.49;99659.97;5054919;28;45489;-70
2021/12/28 11:06:45;;;;;;;;;1.50;1.00;;;;;21.02;39.29;99662.63;5038622;28;45224;-70
2021/12/28 11:09:17;;;;;;;;;0.25;0.00;;;;;21.10;39.28;99668.72;5053220;28;45448;-70
2021/12/28 11:11:43;;;;;;;;;1.25;0.50;;;;;21.09;39.39;99649.38;5056610;28;46042;-70
2021/12/28 11:14:11;;;;;;;;;2.50;0.00;;;;;21.10;39.47;99681.94;5054574;28;45469;-70
2021/12/28 11:16:37;;;;;;;;;0.00;0.00;;;;;21.10;39.15;99674.00;5054651;28;45418;-70
2021/12/28 11:19:06;;;;;;;;;0.00;0.00;;;;;21.11;39.49;99681.72;5054076;28;45335;-70
2021/12/28 11:21:39;;;;;;;;;3.00;0.00;;;;;21.10;39.52;99674.84;5053924;28;45441;-70
2021/12/28 11:24:10;;;;;;;;;1.50;0.50;;;;;21.10;39.38;99663.44;5056594;28;45397;-70
2021/12/28 11:26:38;;;;;;;;;0.50;0.50;;;;;21.09;39.42;99653.84;5053355;28;45514;-70
2021/12/28 11:29:13;;;;;;;;;0.50;0.00;;;;;21.10;39.25;99644.91;5054417;28;45476;-70
2021/12/28 11:31:41;;;;;;;;;0.75;0.00;;;;;21.11;39.37;99646.53;5054429;28;46047;-70
2021/12/28 11:34:14;;;;;;;;;1.00;0.33;;;;;21.11;39.14;99657.09;5054023;28;45821;-70
2021/12/28 11:36:39;;;;;;;;;1.00;1.00;;;;;21.09;39.24;99646.75;5038579;28;45283;-70